Time;durP1;ratioP1;P1;durP2;ratioP2;P2;SDS_P1;SDS_P2;PMS_P1;PMS_P2;Temp;Humidity;BMP_temperature;BMP_pressure;BME280_temperature;BME280_humidity;BME280_pressure;Samples;Min_cycle;Max_cycle;Signal;HPM_P1;HPM_P2
2022/04/13 00:01:16;;;;;;;25.52;16.20;;;12.30;99.90;;;;;;5037849;28;20395;-77
2022/04/13 00:03:43;;;;;;;26.23;16.20;;;12.20;99.90;;;;;;5046807;28;20491;-78
2022/04/13 00:06:09;;;;;;;30.02;17.08;;;12.20;99.90;;;;;;5032892;28;20041;-77
2022/04/13 00:08:35;;;;;;;26.75;15.10;;;12.20;99.90;;;;;;5047574;28;20052;-75
2022/04/13 00:11:00;;;;;;;31.17;16.38;;;12.30;99.90;;;;;;5048115;28;20054;-77
2022/04/13 00:13:27;;;;;;;31.27;16.95;;;12.30;99.90;;;;;;5047296;28;20052;-77
2022/04/13 00:15:52;;;;;;;27.85;17.42;;;12.30;99.90;;;;;;5048702;28;20102;-77
2022/04/13 00:18:18;;;;;;;29.88;16.77;;;12.40;99.90;;;;;;5047479;28;20025;-77
2022/04/13 00:20:45;;;;;;;30.88;17.73;;;12.40;99.90;;;;;;5048932;28;20037;-77
2022/04/13 00:23:11;;;;;;;31.88;17.52;;;12.50;99.90;;;;;;5032462;28;20045;-77
2022/04/13 00:25:39;;;;;;;29.88;17.05;;;12.50;99.90;;;;;;5049310;28;20081;-77
2022/04/13 00:28:05;;;;;;;33.80;17.52;;;12.50;99.90;;;;;;5049136;28;20044;-78
2022/04/13 00:30:31;;;;;;;30.95;17.27;;;12.50;99.90;;;;;;5050166;28;20557;-76
2022/04/13 00:32:57;;;;;;;29.50;16.73;;;12.50;99.90;;;;;;5049707;28;20045;-77
2022/04/13 00:35:22;;;;;;;29.00;18.02;;;12.50;99.90;;;;;;5030974;28;20041;-77
2022/04/13 00:37:48;;;;;;;27.85;17.45;;;12.50;99.90;;;;;;5049567;28;20087;-77
2022/04/13 00:40:13;;;;;;;33.30;17.52;;;12.50;99.90;;;;;;5049201;28;20037;-77
2022/04/13 00:42:39;;;;;;;29.10;17.02;;;12.50;99.90;;;;;;5048352;28;20029;-76
2022/04/13 00:45:05;;;;;;;27.65;17.02;;;12.50;99.90;;;;;;5047355;28;20045;-77
2022/04/13 00:47:31;;;;;;;34.15;17.58;;;12.40;99.90;;;;;;5047996;28;20376;-76
2022/04/13 00:49:56;;;;;;;28.75;16.75;;;12.40;99.90;;;;;;5047413;28;20055;-76
2022/04/13 00:52:26;;;;;;;29.95;17.48;;;12.40;99.90;;;;;;5042032;28;20037;-77
2022/04/13 00:54:54;;;;;;;33.42;17.73;;;12.40;99.90;;;;;;5034937;28;20614;-76
2022/04/13 00:57:21;;;;;;;28.73;16.92;;;12.40;99.90;;;;;;5049324;28;20581;-77
2022/04/13 00:59:48;;;;;;;32.35;17.10;;;12.40;99.90;;;;;;5040260;28;20040;-76
2022/04/13 01:02:16;;;;;;;28.83;16.90;;;12.40;99.90;;;;;;5047423;28;20033;-77
2022/04/13 01:04:44;;;;;;;33.53;16.90;;;12.40;99.90;;;;;;5048593;28;20033;-77
2022/04/13 01:07:10;;;;;;;30.45;16.10;;;12.40;99.90;;;;;;5056156;28;20049;-77
2022/04/13 01:09:37;;;;;;;30.90;17.25;;;12.40;99.90;;;;;;5047726;28;20486;-77
2022/04/13 01:12:03;;;;;;;35.33;17.83;;;12.40;99.90;;;;;;5049615;28;20055;-77
2022/04/13 01:14:30;;;;;;;34.58;17.95;;;12.40;99.90;;;;;;5033893;28;20037;-77
2022/04/13 01:16:55;;;;;;;30.40;17.85;;;12.50;99.90;;;;;;5047571;28;20065;-77
2022/04/13 01:19:21;;;;;;;40.97;17.17;;;12.60;99.90;;;;;;5045003;28;20084;-77
2022/04/13 01:21:52;;;;;;;34.83;17.05;;;12.60;99.90;;;;;;5042998;28;20124;-77
2022/04/13 01:24:19;;;;;;;30.45;17.55;;;12.60;99.90;;;;;;5046897;28;20048;-77
2022/04/13 01:26:45;;;;;;;29.35;16.42;;;12.60;99.90;;;;;;5049211;28;20124;-76
2022/04/13 01:29:12;;;;;;;29.77;17.15;;;12.50;99.90;;;;;;5051942;28;20123;-76
2022/04/13 01:31:39;;;;;;;31.75;17.30;;;12.40;99.90;;;;;;5051542;28;20037;-76
2022/04/13 01:34:04;;;;;;;27.30;16.25;;;12.30;99.90;;;;;;5051281;28;20522;-76
2022/04/13 01:36:36;;;;;;;31.05;15.45;;;12.20;99.90;;;;;;5051718;28;20116;-76
2022/04/13 01:39:03;;;;;;;28.20;16.67;;;12.10;99.90;;;;;;5068466;28;20395;-76
2022/04/13 01:41:29;;;;;;;29.50;17.02;;;12.00;99.90;;;;;;5049764;28;20045;-77
2022/04/13 01:43:54;;;;;;;29.30;17.33;;;12.00;99.90;;;;;;5021055;28;20099;-77
2022/04/13 01:46:20;;;;;;;29.90;16.48;;;11.90;99.90;;;;;;5033851;28;20544;-77
2022/04/13 01:48:45;;;;;;;31.23;16.13;;;11.90;99.90;;;;;;5051692;28;20098;-76
2022/04/13 01:51:11;;;;;;;28.83;15.20;;;11.80;99.90;;;;;;5052131;28;20040;-76
2022/04/13 01:53:36;;;;;;;27.90;15.85;;;11.70;99.90;;;;;;5051452;28;20048;-76
2022/04/13 01:56:02;;;;;;;32.83;17.23;;;11.70;99.90;;;;;;5051383;28;20498;-76
2022/04/13 01:58:28;;;;;;;28.83;16.33;;;11.70;99.90;;;;;;5052098;28;20044;-77
2022/04/13 02:00:54;;;;;;;26.10;15.75;;;11.70;99.90;;;;;;5050933;28;20045;-77
2022/04/13 02:03:24;;;;;;;27.98;16.02;;;11.70;99.90;;;;;;5039316;28;20056;-77
2022/04/13 02:05:52;;;;;;;25.20;15.38;;;11.70;99.90;;;;;;5047137;28;20076;-76
2022/04/13 02:08:22;;;;;;;26.27;15.60;;;11.70;99.90;;;;;;5049040;28;20163;-77
2022/04/13 02:10:47;;;;;;;27.98;14.93;;;11.70;99.90;;;;;;5051080;28;20083;-76
2022/04/13 02:13:14;;;;;;;25.88;15.40;;;11.70;99.90;;;;;;5051704;28;20479;-78
2022/04/13 02:15:40;;;;;;;24.80;14.23;;;11.60;99.90;;;;;;5051289;28;20040;-77
2022/04/13 02:18:06;;;;;;;27.77;15.63;;;11.60;99.90;;;;;;5050986;28;20106;-77
2022/04/13 02:20:32;;;;;;;30.70;16.65;;;11.60;99.90;;;;;;5050847;28;20165;-77
2022/04/13 02:22:58;;;;;;;30.98;16.98;;;11.50;99.90;;;;;;5051445;28;20048;-76
2022/04/13 02:25:23;;;;;;;35.67;17.70;;;11.50;99.90;;;;;;5050041;28;20047;-77
2022/04/13 02:27:49;;;;;;;31.52;17.45;;;11.40;99.90;;;;;;5046723;28;20041;-77
2022/04/13 02:30:15;;;;;;;32.75;15.60;;;11.40;99.90;;;;;;5044455;28;20044;-77
2022/04/13 02:32:45;;;;;;;28.98;16.92;;;11.40;99.90;;;;;;5036877;28;20052;-77
2022/04/13 02:35:12;;;;;;;28.52;16.73;;;11.30;99.90;;;;;;5053106;28;20102;-78
2022/04/13 02:37:38;;;;;;;30.60;17.83;;;11.10;99.90;;;;;;5049253;28;20561;-78
2022/04/13 02:40:06;;;;;;;33.88;19.35;;;10.90;99.90;;;;;;5032834;28;20094;-78
2022/04/13 02:42:35;;;;;;;36.97;19.63;;;10.80;99.90;;;;;;5049797;28;20051;-77
2022/04/13 02:45:02;;;;;;;45.67;21.90;;;10.70;99.90;;;;;;5058718;28;20065;-78
2022/04/13 02:47:28;;;;;;;41.50;21.77;;;10.70;99.90;;;;;;5059352;28;20053;-78
2022/04/13 02:49:56;;;;;;;47.60;22.95;;;10.80;99.90;;;;;;5048784;28;20049;-78
2022/04/13 02:52:23;;;;;;;50.30;24.73;;;10.90;99.90;;;;;;5033028;28;20044;-78
2022/04/13 02:54:49;;;;;;;46.53;23.85;;;11.00;99.90;;;;;;5049171;28;20120;-77
2022/04/13 02:57:14;;;;;;;42.70;23.00;;;11.10;99.90;;;;;;5051195;28;20128;-77
2022/04/13 02:59:40;;;;;;;45.83;23.88;;;11.30;99.90;;;;;;5047994;28;20355;-77
2022/04/13 03:02:06;;;;;;;41.40;21.60;;;11.30;99.90;;;;;;5051108;28;20377;-78
2022/04/13 03:04:32;;;;;;;50.20;22.75;;;11.40;99.90;;;;;;5047004;28;20045;-78
2022/04/13 03:06:58;;;;;;;49.10;23.48;;;11.40;99.90;;;;;;5051169;28;20053;-78
2022/04/13 03:09:24;;;;;;;43.10;22.67;;;11.50;99.90;;;;;;5032313;28;20041;-79
2022/04/13 03:11:49;;;;;;;40.10;21.48;;;11.50;99.90;;;;;;5048916;28;20047;-78
2022/04/13 03:14:15;;;;;;;43.88;21.40;;;11.50;99.90;;;;;;5051221;28;20569;-78
2022/04/13 03:16:40;;;;;;;41.10;20.80;;;11.50;99.90;;;;;;5031978;28;20568;-78
2022/04/13 03:19:06;;;;;;;42.13;19.60;;;11.50;99.90;;;;;;5046745;28;20068;-78
2022/04/13 03:21:32;;;;;;;33.63;17.77;;;11.40;99.90;;;;;;5046537;28;20388;-76
2022/04/13 03:23:57;;;;;;;37.92;18.63;;;11.30;99.90;;;;;;5050636;28;20128;-78
2022/04/13 03:26:23;;;;;;;32.75;17.77;;;11.30;99.90;;;;;;5049109;28;20551;-78
2022/04/13 03:28:49;;;;;;;33.65;18.70;;;11.20;99.90;;;;;;5047862;28;20138;-77
2022/04/13 03:31:16;;;;;;;37.90;19.30;;;11.10;99.90;;;;;;5050598;28;20048;-78
2022/04/13 03:33:42;;;;;;;38.42;18.30;;;11.10;99.90;;;;;;5050072;28;20045;-78
2022/04/13 03:36:08;;;;;;;37.05;18.48;;;11.00;99.90;;;;;;5050085;28;20040;-78
2022/04/13 03:38:35;;;;;;;37.30;20.20;;;11.00;99.90;;;;;;5033136;28;20037;-78
2022/04/13 03:41:03;;;;;;;32.92;18.55;;;10.90;99.90;;;;;;5049170;28;20057;-79
2022/04/13 03:43:28;;;;;;;37.30;20.08;;;10.80;99.90;;;;;;5049286;28;20534;-78
2022/04/13 03:45:54;;;;;;;41.60;19.80;;;10.80;99.90;;;;;;5049581;28;20044;-78
2022/04/13 03:48:20;;;;;;;36.55;19.65;;;10.80;99.90;;;;;;5049223;28;20116;-78
2022/04/13 03:50:46;;;;;;;38.25;19.40;;;10.70;99.90;;;;;;5044728;28;20037;-78
2022/04/13 03:53:11;;;;;;;40.92;21.35;;;10.70;99.90;;;;;;5033774;28;20420;-78
2022/04/13 03:55:37;;;;;;;42.75;22.65;;;10.60;99.90;;;;;;5048681;28;20055;-78
2022/04/13 03:58:03;;;;;;;48.72;23.40;;;10.60;99.90;;;;;;5048188;28;20033;-79
2022/04/13 04:00:28;;;;;;;47.47;23.23;;;10.60;99.90;;;;;;5049295;28;20045;-78
2022/04/13 04:02:54;;;;;;;48.15;23.20;;;10.50;99.90;;;;;;5047738;28;20044;-78
2022/04/13 04:05:20;;;;;;;47.58;23.00;;;10.50;99.90;;;;;;5026009;28;20040;-78
2022/04/13 04:07:46;;;;;;;45.78;21.05;;;10.40;99.90;;;;;;5050092;28;20044;-78
2022/04/13 04:10:11;;;;;;;45.03;22.25;;;10.40;99.90;;;;;;5048560;28;20415;-78
2022/04/13 04:12:39;;;;;;;47.90;23.00;;;10.40;99.90;;;;;;5033182;28;20373;-77
2022/04/13 04:15:05;;;;;;;45.72;23.48;;;10.40;99.90;;;;;;5049827;28;20073;-78
2022/04/13 04:17:31;;;;;;;49.42;25.55;;;10.30;99.90;;;;;;5047906;28;20041;-78
2022/04/13 04:19:56;;;;;;;50.28;25.48;;;10.30;99.90;;;;;;5043146;28;20044;-77
2022/04/13 04:22:24;;;;;;;49.80;25.88;;;10.30;99.90;;;;;;5049783;28;20868;-78
2022/04/13 04:24:50;;;;;;;52.42;24.00;;;10.20;99.90;;;;;;5040494;28;20155;-77
2022/04/13 04:27:15;;;;;;;49.15;26.13;;;10.20;99.90;;;;;;5049260;28;20087;-78
2022/04/13 04:29:41;;;;;;;50.00;23.63;;;10.20;99.90;;;;;;5048401;28;20044;-78
2022/04/13 04:32:07;;;;;;;49.05;24.17;;;10.10;99.90;;;;;;5031915;28;20045;-78
2022/04/13 04:34:33;;;;;;;50.67;25.42;;;10.10;99.90;;;;;;5048184;28;20067;-77
2022/04/13 04:36:59;;;;;;;55.88;25.83;;;10.10;99.90;;;;;;5049672;28;20037;-77
2022/04/13 04:39:25;;;;;;;55.42;26.23;;;10.10;99.90;;;;;;5040842;28;20117;-77
2022/04/13 04:41:51;;;;;;;56.42;27.42;;;10.10;99.90;;;;;;5029546;28;20041;-77
2022/04/13 04:44:17;;;;;;;59.13;27.67;;;10.10;99.90;;;;;;5053350;28;20484;-78
2022/04/13 04:46:42;;;;;;;56.75;25.88;;;10.10;99.90;;;;;;5049692;28;20480;-78
2022/04/13 04:49:08;;;;;;;55.25;27.23;;;10.10;99.90;;;;;;5048476;28;20036;-78
2022/04/13 04:51:34;;;;;;;55.03;28.45;;;10.20;99.90;;;;;;5045839;28;20078;-78
2022/04/13 04:54:01;;;;;;;64.68;30.42;;;10.20;99.90;;;;;;5030173;28;20095;-78
2022/04/13 04:56:27;;;;;;;65.10;29.15;;;10.20;99.90;;;;;;5035157;28;20037;-78
2022/04/13 04:58:52;;;;;;;58.33;30.83;;;10.20;99.90;;;;;;5046899;28;20032;-78
2022/04/13 05:01:18;;;;;;;61.55;28.85;;;10.20;99.90;;;;;;5052773;28;20040;-79
2022/04/13 05:03:48;;;;;;;63.53;29.42;;;10.20;99.90;;;;;;5052037;28;20313;-78
2022/04/13 05:06:21;;;;;;;62.70;28.90;;;10.30;99.90;;;;;;5041957;28;20053;-78
2022/04/13 05:08:48;;;;;;;60.55;29.75;;;10.30;99.90;;;;;;5045116;28;20037;-79
2022/04/13 05:11:14;;;;;;;61.38;28.80;;;10.30;99.90;;;;;;5065935;28;20048;-79
2022/04/13 05:13:39;;;;;;;59.15;28.88;;;10.30;99.90;;;;;;5052925;28;20480;-78
2022/04/13 05:16:06;;;;;;;55.08;28.15;;;10.30;99.90;;;;;;5053274;28;20041;-79
2022/04/13 05:18:32;;;;;;;57.42;27.73;;;10.30;99.90;;;;;;5048683;28;20094;-79
2022/04/13 05:20:57;;;;;;;66.30;30.67;;;10.20;99.90;;;;;;5028790;28;20048;-79
2022/04/13 05:23:23;;;;;;;54.05;27.88;;;10.30;99.90;;;;;;5045291;28;20403;-79
2022/04/13 05:25:48;;;;;;;57.22;28.70;;;10.30;99.90;;;;;;5048332;28;20047;-79
2022/04/13 05:28:15;;;;;;;53.72;27.90;;;10.20;99.90;;;;;;5041799;28;20063;-79
2022/04/13 05:30:40;;;;;;;60.92;29.50;;;10.20;99.90;;;;;;5031990;28;20321;-79
2022/04/13 05:33:06;;;;;;;55.75;28.73;;;10.20;99.90;;;;;;5049877;28;20041;-77
2022/04/13 05:35:32;;;;;;;55.13;28.48;;;10.30;99.90;;;;;;5037730;28;20044;-77
2022/04/13 05:37:59;;;;;;;59.15;28.58;;;10.30;99.90;;;;;;5049704;28;20365;-78
2022/04/13 05:40:25;;;;;;;56.50;29.00;;;10.30;99.90;;;;;;5050025;28;20036;-77
2022/04/13 05:42:54;;;;;;;63.03;29.27;;;10.30;99.90;;;;;;5050943;28;20025;-77
2022/04/13 05:45:20;;;;;;;60.15;27.85;;;10.40;99.90;;;;;;5049584;28;20047;-77
2022/04/13 05:47:45;;;;;;;59.75;29.55;;;10.40;99.90;;;;;;5051321;28;20036;-77
2022/04/13 05:50:12;;;;;;;53.83;28.42;;;10.40;99.90;;;;;;5048585;28;20041;-78
2022/04/13 05:52:39;;;;;;;65.45;29.35;;;10.40;99.90;;;;;;5047142;28;20045;-77
2022/04/13 05:55:06;;;;;;;58.15;28.20;;;10.40;99.90;;;;;;5059255;28;20051;-77
2022/04/13 05:57:32;;;;;;;58.72;28.55;;;10.50;99.90;;;;;;5046984;28;20056;-77
2022/04/13 05:59:57;;;;;;;55.75;29.50;;;10.50;99.90;;;;;;5050079;28;20033;-77
2022/04/13 06:02:23;;;;;;;61.85;30.15;;;10.60;99.90;;;;;;5050954;28;20495;-77
2022/04/13 06:04:49;;;;;;;56.58;29.33;;;10.70;99.90;;;;;;5049604;28;20041;-77
2022/04/13 06:07:15;;;;;;;57.25;27.45;;;10.80;99.90;;;;;;5051720;28;20388;-77
2022/04/13 06:09:40;;;;;;;60.67;29.70;;;10.90;99.90;;;;;;5049978;28;20045;-77
2022/04/13 06:12:06;;;;;;;53.83;29.27;;;11.00;99.90;;;;;;5049855;28;20115;-77
2022/04/13 06:14:32;;;;;;;55.88;29.58;;;11.10;99.90;;;;;;5051682;28;20068;-77
2022/04/13 06:16:58;;;;;;;64.88;30.80;;;11.20;99.90;;;;;;5033746;28;20130;-77
2022/04/13 06:19:23;;;;;;;63.65;31.23;;;11.40;99.90;;;;;;5050227;28;20048;-78
2022/04/13 06:21:49;;;;;;;53.58;29.08;;;11.40;99.90;;;;;;5051572;28;20037;-77
2022/04/13 06:24:14;;;;;;;65.38;32.25;;;11.50;99.90;;;;;;5035032;28;20048;-78
2022/04/13 06:26:40;;;;;;;63.00;31.90;;;11.70;99.90;;;;;;5051346;28;20398;-78
2022/04/13 06:29:05;;;;;;;64.32;32.95;;;11.80;99.90;;;;;;5051759;28;20044;-78
2022/04/13 06:31:31;;;;;;;60.90;32.88;;;12.00;99.90;;;;;;5051831;28;20053;-78
2022/04/13 06:33:57;;;;;;;72.07;33.10;;;12.00;99.90;;;;;;5051652;28;20502;-78
2022/04/13 06:36:22;;;;;;;63.55;32.30;;;12.10;99.90;;;;;;5034783;28;20143;-79
2022/04/13 06:38:48;;;;;;;72.97;34.70;;;12.20;99.90;;;;;;5047265;28;20099;-79
2022/04/13 06:41:14;;;;;;;70.85;34.92;;;12.30;99.90;;;;;;5047361;28;20556;-79
2022/04/13 06:43:40;;;;;;;72.20;34.40;;;12.40;99.90;;;;;;5049196;28;20041;-78
2022/04/13 06:46:06;;;;;;;69.70;33.72;;;12.50;99.90;;;;;;5050288;28;20041;-79
2022/04/13 06:48:32;;;;;;;68.82;32.17;;;12.70;99.90;;;;;;5034488;28;20044;-79
2022/04/13 06:50:59;;;;;;;62.28;30.15;;;12.80;99.90;;;;;;5050359;28;20415;-78
2022/04/13 06:53:25;;;;;;;60.10;27.58;;;13.00;99.90;;;;;;5053214;28;20480;-80
2022/04/13 06:55:51;;;;;;;52.65;26.02;;;13.20;99.90;;;;;;5054081;28;20047;-76
2022/04/13 06:58:18;;;;;;;45.45;22.00;;;13.50;99.90;;;;;;5050991;28;20078;-76
2022/04/13 07:00:44;;;;;;;47.45;23.00;;;13.50;99.90;;;;;;5050677;28;20082;-74
2022/04/13 07:03:09;;;;;;;48.90;21.90;;;13.50;99.90;;;;;;5052991;28;20131;-78
2022/04/13 07:05:35;;;;;;;49.85;23.40;;;13.60;99.90;;;;;;5051794;28;20040;-78
2022/04/13 07:08:02;;;;;;;52.05;23.00;;;13.70;99.90;;;;;;5050279;28;20048;-76
2022/04/13 07:10:29;;;;;;;42.20;19.55;;;13.70;99.90;;;;;;5032811;28;20136;-80
2022/04/13 07:12:55;;;;;;;51.05;22.13;;;13.70;99.90;;;;;;5053454;28;20060;-76
2022/04/13 07:15:20;;;;;;;48.92;21.95;;;13.70;99.90;;;;;;5068785;28;20518;-75
2022/04/13 07:17:47;;;;;;;49.67;21.73;;;13.60;99.90;;;;;;5051164;28;20163;-77
2022/04/13 07:20:13;;;;;;;52.28;21.08;;;13.60;99.90;;;;;;5070608;28;20040;-76
2022/04/13 07:22:57;;;;;;;45.10;21.85;;;13.60;99.90;;;;;;5052929;28;20041;-74
2022/04/13 07:25:23;;;;;;;48.35;21.88;;;13.60;99.90;;;;;;5053925;28;20037;-76
2022/04/13 07:27:49;;;;;;;51.05;22.52;;;13.70;99.90;;;;;;5070350;28;20043;-77
2022/04/13 07:30:15;;;;;;;50.00;22.77;;;13.80;99.90;;;;;;5070659;28;20041;-76
2022/04/13 07:32:45;;;;;;;48.22;22.70;;;13.70;99.90;;;;;;5053236;28;20045;-79
2022/04/13 07:35:11;;;;;;;54.78;23.48;;;13.70;99.90;;;;;;5052650;28;20037;-77
2022/04/13 07:37:39;;;;;;;56.15;23.35;;;13.80;99.90;;;;;;5050605;28;20028;-78
2022/04/13 07:40:09;;;;;;;57.00;23.90;;;13.80;99.90;;;;;;5051146;28;20047;-78
2022/04/13 07:42:34;;;;;;;56.72;24.50;;;13.90;99.90;;;;;;5033071;28;20104;-79
2022/04/13 07:45:03;;;;;;;56.03;24.40;;;13.90;99.90;;;;;;5036568;28;20080;-76
2022/04/13 07:47:29;;;;;;;54.92;24.02;;;13.90;99.90;;;;;;5052604;28;20048;-79
2022/04/13 07:49:54;;;;;;;50.42;23.67;;;13.90;99.90;;;;;;5053090;28;20470;-76
2022/04/13 07:52:20;;;;;;;51.47;24.33;;;13.90;99.90;;;;;;5034665;28;20041;-78
2022/04/13 07:54:45;;;;;;;56.45;25.50;;;14.00;99.90;;;;;;5050392;28;20090;-76
2022/04/13 07:57:11;;;;;;;52.63;23.83;;;14.00;99.90;;;;;;5054937;28;20041;-80
2022/04/13 07:59:37;;;;;;;52.38;23.48;;;14.00;99.90;;;;;;5055013;28;20033;-75
2022/04/13 08:02:04;;;;;;;47.85;22.95;;;14.10;99.90;;;;;;5040499;28;20037;-76
2022/04/13 08:04:29;;;;;;;53.92;24.65;;;14.10;99.90;;;;;;5053232;28;20037;-77
2022/04/13 08:06:55;;;;;;;58.17;23.45;;;14.10;99.90;;;;;;5054887;28;20093;-79
2022/04/13 08:09:21;;;;;;;53.20;25.30;;;14.00;99.90;;;;;;5035473;28;20596;-78
2022/04/13 08:11:52;;;;;;;59.83;26.10;;;14.00;99.90;;;;;;5049294;28;20128;-77
2022/04/13 08:14:21;;;;;;;52.83;24.40;;;14.20;99.90;;;;;;5051400;28;20068;-78
2022/04/13 08:16:46;;;;;;;54.03;25.17;;;14.20;99.90;;;;;;5051605;28;20045;-78
2022/04/13 08:19:12;;;;;;;60.08;26.02;;;14.30;99.90;;;;;;5050690;28;20048;-79
2022/04/13 08:21:40;;;;;;;58.45;24.02;;;14.20;99.90;;;;;;5067963;28;20045;-77
2022/04/13 08:24:06;;;;;;;45.13;22.58;;;14.30;99.90;;;;;;5052555;28;20060;-74
2022/04/13 08:26:31;;;;;;;46.60;22.20;;;14.40;99.90;;;;;;5049806;28;20450;-78
2022/04/13 08:28:57;;;;;;;50.28;21.17;;;14.60;99.90;;;;;;5048954;28;20436;-76
2022/04/13 08:31:22;;;;;;;36.72;18.00;;;14.70;99.90;;;;;;5047206;28;20404;-80
2022/04/13 08:33:48;;;;;;;46.63;20.88;;;14.90;99.90;;;;;;5050004;28;20087;-75
2022/04/13 08:36:14;;;;;;;43.35;19.55;;;15.00;99.90;;;;;;5053322;28;20448;-76
2022/04/13 08:38:40;;;;;;;49.58;20.98;;;15.00;99.90;;;;;;5058901;28;20051;-74
2022/04/13 08:41:18;;;;;;;34.97;17.60;;;15.20;99.90;;;;;;5036875;28;20041;-75
2022/04/13 08:43:58;;;;;;;39.72;17.05;;;15.20;99.90;;;;;;5036780;28;20088;-75
2022/04/13 08:46:25;;;;;;;35.80;18.23;;;15.10;99.90;;;;;;5051753;28;20037;-79
2022/04/13 08:48:52;;;;;;;40.60;17.02;;;15.00;99.90;;;;;;5053673;28;20476;-76
2022/04/13 08:51:21;;;;;;;43.88;17.90;;;14.90;99.90;;;;;;5075754;28;20041;-76
2022/04/13 08:53:50;;;;;;;39.10;19.52;;;15.00;99.90;;;;;;5042190;28;20527;-77
2022/04/13 08:56:18;;;;;;;40.90;18.38;;;15.10;99.90;;;;;;5031251;28;20040;-77
2022/04/13 08:59:21;;;;;;;38.53;17.38;;;15.10;99.90;;;;;;5054757;28;20098;-76
2022/04/13 09:02:17;;;;;;;38.25;18.85;;;15.20;99.90;;;;;;5054758;28;20044;-79
2022/04/13 09:04:45;;;;;;;36.45;16.35;;;15.30;99.90;;;;;;5058862;28;20044;-80
2022/04/13 09:07:13;;;;;;;32.35;16.77;;;15.40;99.90;;;;;;5053117;28;20040;-80
2022/04/13 09:09:46;;;;;;;32.42;15.93;;;15.50;99.90;;;;;;5055961;28;20072;-77
2022/04/13 09:12:13;;;;;;;37.05;16.98;;;15.40;99.90;;;;;;5056159;28;20045;-78
2022/04/13 09:14:40;;;;;;;29.13;14.75;;;15.40;99.90;;;;;;5053875;28;20037;-69
2022/04/13 09:17:07;;;;;;;29.10;13.65;;;15.40;99.90;;;;;;5058847;28;20067;-78
2022/04/13 09:19:33;;;;;;;30.90;14.07;;;15.50;99.90;;;;;;5053620;28;20056;-74
2022/04/13 09:21:59;;;;;;;27.77;13.52;;;15.50;99.90;;;;;;5051793;28;20044;-78
2022/04/13 09:24:27;;;;;;;38.33;16.00;;;15.50;99.90;;;;;;5061165;28;20454;-78
2022/04/13 09:26:54;;;;;;;30.00;14.25;;;15.50;99.90;;;;;;5050213;28;20045;-76
2022/04/13 09:29:19;;;;;;;33.92;13.45;;;15.50;99.90;;;;;;5052842;28;20047;-77
2022/04/13 09:31:45;;;;;;;32.17;14.68;;;15.60;99.90;;;;;;5040795;28;20045;-76
2022/04/13 09:34:11;;;;;;;30.38;15.68;;;15.70;99.90;;;;;;5036308;28;20172;-72
2022/04/13 09:36:37;;;;;;;28.60;14.18;;;15.70;99.90;;;;;;5036411;28;20087;-80
2022/04/13 09:39:03;;;;;;;31.52;15.55;;;15.70;99.90;;;;;;5059576;28;20072;-78
2022/04/13 09:41:34;;;;;;;37.50;15.80;;;16.00;99.90;;;;;;5056085;28;20403;-79
2022/04/13 09:43:59;;;;;;;35.35;15.80;;;16.10;99.90;;;;;;5074229;28;20041;-76
2022/04/13 09:46:29;;;;;;;32.72;14.07;;;16.30;99.90;;;;;;5075166;28;20033;-76
2022/04/13 09:49:12;;;;;;;39.70;16.45;;;16.50;99.90;;;;;;5055287;28;20605;-74
2022/04/13 09:51:39;;;;;;;34.80;15.63;;;16.60;99.90;;;;;;5038028;28;20040;-73
2022/04/13 09:54:09;;;;;;;32.33;14.50;;;16.80;99.90;;;;;;5057571;28;20029;-70
2022/04/13 09:56:37;;;;;;;32.22;15.05;;;17.10;99.90;;;;;;5059761;28;20048;-74
2022/04/13 09:59:06;;;;;;;27.08;12.00;;;17.30;99.90;;;;;;5057537;28;20096;-76
2022/04/13 10:01:35;;;;;;;30.20;14.30;;;17.50;99.90;;;;;;5040400;28;20037;-74
2022/04/13 10:04:23;;;;;;;31.05;13.73;;;17.30;99.90;;;;;;5056283;28;20049;-77
2022/04/13 10:06:48;;;;;;;31.25;13.60;;;17.30;99.90;;;;;;5057189;28;20471;-72
2022/04/13 10:09:14;;;;;;;34.65;15.13;;;17.30;99.90;;;;;;5050097;28;20083;-78
2022/04/13 10:11:57;;;;;;;30.60;13.88;;;17.30;99.90;;;;;;5050387;28;20037;-78
2022/04/13 10:14:23;;;;;;;31.23;15.35;;;17.30;99.90;;;;;;5055236;28;20051;-76
2022/04/13 10:16:51;;;;;;;35.10;15.63;;;17.30;99.90;;;;;;5060217;28;20535;-76
2022/04/13 10:19:20;;;;;;;34.05;15.55;;;17.40;99.90;;;;;;5058965;28;20041;-74
2022/04/13 10:21:51;;;;;;;34.67;13.75;;;17.50;99.90;;;;;;5042963;28;20033;-74
2022/04/13 10:24:31;;;;;;;34.00;16.00;;;17.60;99.90;;;;;;5039004;28;20064;-77
2022/04/13 10:27:10;;;;;;;25.40;12.68;;;17.50;99.90;;;;;;5055144;28;20333;-74
2022/04/13 10:29:37;;;;;;;25.05;12.50;;;17.30;99.90;;;;;;5037521;28;20037;-75
2022/04/13 10:32:08;;;;;;;26.20;12.02;;;17.30;99.90;;;;;;5055591;28;20059;-76
2022/04/13 10:34:40;;;;;;;23.20;10.68;;;17.30;99.90;;;;;;5053197;28;20041;-77
2022/04/13 10:37:07;;;;;;;31.15;11.57;;;17.50;99.90;;;;;;5038587;28;20048;-75
2022/04/13 10:39:33;;;;;;;23.90;10.68;;;17.50;99.90;;;;;;5053912;28;20045;-79
2022/04/13 10:41:59;;;;;;;21.33;9.43;;;17.70;99.90;;;;;;5054407;28;20511;-75
2022/04/13 10:44:34;;;;;;;21.33;9.60;;;17.90;99.90;;;;;;5054762;28;20044;-73
2022/04/13 10:47:03;;;;;;;23.50;10.35;;;18.10;99.90;;;;;;5046218;28;20431;-74
2022/04/13 10:49:45;;;;;;;24.20;12.05;;;18.20;99.90;;;;;;5052947;28;20045;-74
2022/04/13 10:52:20;;;;;;;24.63;11.85;;;18.20;99.90;;;;;;5051547;28;20040;-69
2022/04/13 10:54:53;;;;;;;24.27;11.50;;;17.70;99.90;;;;;;5049617;28;20040;-70
2022/04/13 10:57:25;;;;;;;25.38;12.63;;;17.50;99.90;;;;;;5043880;28;20116;-73
2022/04/13 10:59:52;;;;;;;26.53;10.40;;;17.70;99.90;;;;;;5036985;28;20075;-76
2022/04/13 11:02:32;;;;;;;26.25;11.65;;;18.00;99.90;;;;;;5049137;28;20114;-75
2022/04/13 11:04:59;;;;;;;26.85;13.15;;;18.00;99.90;;;;;;5045293;28;20087;-71
2022/04/13 11:07:26;;;;;;;27.05;12.45;;;17.80;99.90;;;;;;5053198;28;20037;-75
2022/04/13 11:09:56;;;;;;;28.92;12.80;;;17.80;99.90;;;;;;5051341;28;20041;-70
2022/04/13 11:12:23;;;;;;;22.90;9.93;;;17.60;99.90;;;;;;5044171;28;20523;-80
2022/04/13 11:14:54;;;;;;;24.98;11.93;;;17.60;99.90;;;;;;5048412;28;20125;-71
2022/04/13 11:17:23;;;;;;;29.50;13.00;;;17.50;99.90;;;;;;5047575;28;20260;-70
2022/04/13 11:19:49;;;;;;;30.63;13.20;;;17.30;99.90;;;;;;5021847;28;20388;-74
2022/04/13 11:22:19;;;;;;;28.10;13.00;;;17.20;99.90;;;;;;5049612;28;20031;-73
2022/04/13 11:24:47;;;;;;;29.75;13.10;;;17.10;99.90;;;;;;5049457;28;20040;-71
2022/04/13 11:27:14;;;;;;;28.92;12.60;;;17.10;99.90;;;;;;5047968;28;20044;-73
2022/04/13 11:29:41;;;;;;;28.23;13.27;;;17.00;99.90;;;;;;5038439;28;20051;-74
2022/04/13 11:32:14;;;;;;;27.90;14.27;;;16.90;99.90;;;;;;5044134;28;20095;-72
2022/04/13 11:34:41;;;;;;;28.40;13.40;;;16.90;99.90;;;;;;5043018;28;20124;-69
2022/04/13 11:37:13;;;;;;;30.67;13.90;;;17.00;99.90;;;;;;5047817;28;20399;-73
2022/04/13 11:39:46;;;;;;;31.98;14.70;;;17.00;99.90;;;;;;5048118;28;20041;-73
2022/04/13 11:42:20;;;;;;;29.70;14.77;;;17.00;99.90;;;;;;5046913;28;20339;-75
2022/04/13 11:44:47;;;;;;;34.78;13.05;;;17.00;99.90;;;;;;5045691;28;20068;-76
2022/04/13 11:47:14;;;;;;;38.92;15.73;;;17.20;99.90;;;;;;5060064;28;20510;-73
2022/04/13 11:50:00;;;;;;;35.53;12.20;;;17.30;99.90;;;;;;5033379;28;20041;-74
2022/04/13 11:52:48;;;;;;;38.22;16.38;;;17.30;99.90;;;;;;5044703;28;21996;-77
2022/04/13 11:55:26;;;;;;;35.70;14.40;;;17.30;99.90;;;;;;5049789;28;20227;-73
2022/04/13 11:58:04;;;;;;;30.42;12.27;;;17.20;99.90;;;;;;5031606;28;20105;-78
2022/04/13 12:00:43;;;;;;;34.25;14.50;;;17.10;99.90;;;;;;5043598;28;20480;-76
2022/04/13 12:03:09;;;;;;;38.38;13.10;;;17.10;99.90;;;;;;5051213;28;20037;-79
2022/04/13 12:05:38;;;;;;;34.47;12.35;;;17.00;99.90;;;;;;5051409;28;20167;-73
2022/04/13 12:08:15;;;;;;;28.65;10.48;;;16.90;99.90;;;;;;5033215;28;20040;-75
2022/04/13 12:11:01;;;;;;;24.80;8.70;;;16.80;99.90;;;;;;5049839;28;20056;-75
2022/04/13 12:13:33;;;;;;;20.40;7.25;;;16.70;99.90;;;;;;5047752;28;20175;-74
2022/04/13 12:16:00;;;;;;;24.58;8.65;;;16.50;99.90;;;;;;5047867;28;20379;-77
2022/04/13 12:18:26;;;;;;;14.80;5.93;;;16.40;99.90;;;;;;5040684;28;20033;-76
2022/04/13 12:21:05;;;;;;;19.60;8.35;;;16.40;99.90;;;;;;5050209;28;20033;-76
2022/04/13 12:23:37;;;;;;;21.77;8.23;;;16.20;99.90;;;;;;5051082;28;20449;-75
2022/04/13 12:26:03;;;;;;;20.02;7.10;;;16.20;99.90;;;;;;5050246;28;20049;-71
2022/04/13 12:28:29;;;;;;;26.45;7.18;;;16.10;99.90;;;;;;5050695;28;20055;-72
2022/04/13 12:31:06;;;;;;;24.73;7.82;;;16.20;99.90;;;;;;5050909;28;20132;-71